sensor_id;sensor_type;location;lat;lon;timestamp;pressure;altitude;pressure_sealevel;temperature;humidity
13080;BME280;6606;49.154;9.280;2023-05-11T00:02:15;99430.69;;;12.98;100.00
13080;BME280;6606;49.154;9.280;2023-05-11T00:04:57;99433.56;;;12.95;100.00
13080;BME280;6606;49.154;9.280;2023-05-11T00:07:38;99435.16;;;12.98;100.00
13080;BME280;6606;49.154;9.280;2023-05-11T00:10:22;99433.28;;;12.86;100.00
13080;BME280;6606;49.154;9.280;2023-05-11T00:13:04;99431.53;;;12.99;100.00
13080;BME280;6606;49.154;9.280;2023-05-11T00:15:46;99427.47;;;12.93;100.00
13080;BME280;6606;49.154;9.280;2023-05-11T00:18:28;99425.69;;;12.94;100.00
13080;BME280;6606;49.154;9.280;2023-05-11T00:21:09;99428.53;;;12.91;100.00
13080;BME280;6606;49.154;9.280;2023-05-11T00:23:51;99428.34;;;12.94;100.00
13080;BME280;6606;49.154;9.280;2023-05-11T00:26:34;99433.47;;;12.97;100.00
13080;BME280;6606;49.154;9.280;2023-05-11T00:29:16;99433.28;;;13.00;100.00
13080;BME280;6606;49.154;9.280;2023-05-11T00:31:58;99430.13;;;12.93;100.00
13080;BME280;6606;49.154;9.280;2023-05-11T00:34:40;99422.91;;;12.95;100.00
13080;BME280;6606;49.154;9.280;2023-05-11T00:37:22;99431.31;;;12.89;100.00
13080;BME280;6606;49.154;9.280;2023-05-11T00:40:06;99427.47;;;12.93;100.00
13080;BME280;6606;49.154;9.280;2023-05-11T00:42:49;99428.16;;;12.97;100.00
13080;BME280;6606;49.154;9.280;2023-05-11T00:45:31;99416.53;;;12.98;100.00
13080;BME280;6606;49.154;9.280;2023-05-11T00:48:13;99423.41;;;12.88;100.00
13080;BME280;6606;49.154;9.280;2023-05-11T00:50:56;99425.13;;;12.89;100.00
13080;BME280;6606;49.154;9.280;2023-05-11T00:53:39;99425.88;;;12.91;100.00
13080;BME280;6606;49.154;9.280;2023-05-11T00:56:21;99416.38;;;12.87;100.00
13080;BME280;6606;49.154;9.280;2023-05-11T00:59:04;99422.28;;;12.92;100.00
13080;BME280;6606;49.154;9.280;2023-05-11T01:01:46;99416.59;;;12.84;100.00
13080;BME280;6606;49.154;9.280;2023-05-11T01:04:28;99424.56;;;12.84;100.00
13080;BME280;6606;49.154;9.280;2023-05-11T01:07:16;99420.28;;;12.81;100.00
13080;BME280;6606;49.154;9.280;2023-05-11T01:10:05;99418.69;;;12.79;100.00
13080;BME280;6606;49.154;9.280;2023-05-11T01:12:55;99422.06;;;12.81;100.00
13080;BME280;6606;49.154;9.280;2023-05-11T01:15:45;99418.09;;;12.88;100.00
13080;BME280;6606;49.154;9.280;2023-05-11T01:18:33;99421.91;;;12.84;100.00
13080;BME280;6606;49.154;9.280;2023-05-11T01:21:21;99416.59;;;12.84;100.00
13080;BME280;6606;49.154;9.280;2023-05-11T01:24:31;99418.69;;;12.79;100.00
13080;BME280;6606;49.154;9.280;2023-05-11T01:27:31;99418.69;;;12.79;100.00
13080;BME280;6606;49.154;9.280;2023-05-11T01:30:28;99415.66;;;12.70;100.00
13080;BME280;6606;49.154;9.280;2023-05-11T01:33:13;99415.47;;;12.73;100.00
13080;BME280;6606;49.154;9.280;2023-05-11T01:36:01;99414.88;;;12.83;100.00
13080;BME280;6606;49.154;9.280;2023-05-11T01:38:46;99414.00;;;12.82;100.00
13080;BME280;6606;49.154;9.280;2023-05-11T01:41:32;99424.69;;;12.68;100.00
13080;BME280;6606;49.154;9.280;2023-05-11T01:44:18;99413.72;;;12.72;100.00
13080;BME280;6606;49.154;9.280;2023-05-11T01:47:03;99414.91;;;12.68;100.00
13080;BME280;6606;49.154;9.280;2023-05-11T01:49:47;99410.34;;;12.70;100.00
13080;BME280;6606;49.154;9.280;2023-05-11T01:52:32;99410.50;;;12.67;100.00
13080;BME280;6606;49.154;9.280;2023-05-11T01:55:16;99410.91;;;12.61;100.00
13080;BME280;6606;49.154;9.280;2023-05-11T01:58:01;99409.00;;;12.63;100.00
13080;BME280;6606;49.154;9.280;2023-05-11T02:00:45;99407.19;;;12.64;100.00
13080;BME280;6606;49.154;9.280;2023-05-11T02:03:30;99401.25;;;12.60;100.00
13080;BME280;6606;49.154;9.280;2023-05-11T02:06:13;99410.34;;;12.56;100.00
13080;BME280;6606;49.154;9.280;2023-05-11T02:08:57;99413.19;;;12.53;100.00
13080;BME280;6606;49.154;9.280;2023-05-11T02:11:41;99414.44;;;12.47;100.00
13080;BME280;6606;49.154;9.280;2023-05-11T02:14:25;99415.69;;;12.42;100.00
13080;BME280;6606;49.154;9.280;2023-05-11T02:17:09;99419.25;;;12.41;100.00
13080;BME280;6606;49.154;9.280;2023-05-11T02:19:53;99424.78;;;12.38;100.00
13080;BME280;6606;49.154;9.280;2023-05-11T02:22:37;99423.84;;;12.39;100.00
13080;BME280;6606;49.154;9.280;2023-05-11T02:25:22;99424.88;;;12.36;100.00
13080;BME280;6606;49.154;9.280;2023-05-11T02:28:04;99421.53;;;12.32;100.00
13080;BME280;6606;49.154;9.280;2023-05-11T02:30:48;99427.16;;;12.28;100.00
13080;BME280;6606;49.154;9.280;2023-05-11T02:33:33;99427.81;;;12.31;100.00
13080;BME280;6606;49.154;9.280;2023-05-11T02:36:19;99429.63;;;12.31;100.00
13080;BME280;6606;49.154;9.280;2023-05-11T02:39:06;99430.28;;;12.35;100.00
13080;BME280;6606;49.154;9.280;2023-05-11T02:41:59;99428.59;;;12.34;100.00
13080;BME280;6606;49.154;9.280;2023-05-11T02:44:45;99427.06;;;12.29;100.00
13080;BME280;6606;49.154;9.280;2023-05-11T02:47:31;99429.81;;;12.28;100.00
13080;BME280;6606;49.154;9.280;2023-05-11T02:50:15;99425.91;;;12.19;100.00
13080;BME280;6606;49.154;9.280;2023-05-11T02:53:03;99415.47;;;12.16;100.00
13080;BME280;6606;49.154;9.280;2023-05-11T02:55:47;99421.53;;;12.18;100.00
13080;BME280;6606;49.154;9.280;2023-05-11T02:58:31;99420.59;;;12.19;100.00
13080;BME280;6606;49.154;9.280;2023-05-11T03:01:27;99418.78;;;12.05;100.00
13080;BME280;6606;49.154;9.280;2023-05-11T03:04:09;99417.53;;;12.11;100.00
13080;BME280;6606;49.154;9.280;2023-05-11T03:06:50;99417.84;;;12.21;100.00
13080;BME280;6606;49.154;9.280;2023-05-11T03:09:34;99417.84;;;12.21;100.00
13080;BME280;6606;49.154;9.280;2023-05-11T03:12:16;99423.34;;;12.18;100.00
13080;BME280;6606;49.154;9.280;2023-05-11T03:14:58;99413.56;;;12.18;100.00
13080;BME280;6606;49.154;9.280;2023-05-11T03:17:42;99413.56;;;12.18;100.00
13080;BME280;6606;49.154;9.280;2023-05-11T03:20:28;99415.47;;;12.16;100.00
13080;BME280;6606;49.154;9.280;2023-05-11T03:23:11;99418.88;;;12.18;100.00
13080;BME280;6606;49.154;9.280;2023-05-11T03:25:57;99421.28;;;12.23;100.00
13080;BME280;6606;49.154;9.280;2023-05-11T03:28:40;99413.56;;;12.18;100.00
13080;BME280;6606;49.154;9.280;2023-05-11T03:31:24;99410.53;;;12.24;100.00
13080;BME280;6606;49.154;9.280;2023-05-11T03:34:06;99414.03;;;12.25;100.00
13080;BME280;6606;49.154;9.280;2023-05-11T03:36:51;99413.56;;;12.18;100.00
13080;BME280;6606;49.154;9.280;2023-05-11T03:39:35;99410.53;;;12.24;100.00
13080;BME280;6606;49.154;9.280;2023-05-11T03:43:15;99405.34;;;12.23;100.00
13080;BME280;6606;49.154;9.280;2023-05-11T03:46:01;99410.34;;;12.27;100.00
13080;BME280;6606;49.154;9.280;2023-05-11T03:48:45;99411.22;;;12.28;100.00
13080;BME280;6606;49.154;9.280;2023-05-11T03:51:31;99412.84;;;12.30;100.00
13080;BME280;6606;49.154;9.280;2023-05-11T03:54:15;99406.44;;;12.33;100.00
13080;BME280;6606;49.154;9.280;2023-05-11T03:56:57;99397.44;;;12.21;100.00
13080;BME280;6606;49.154;9.280;2023-05-11T03:59:40;99397.25;;;12.24;100.00
13080;BME280;6606;49.154;9.280;2023-05-11T04:02:22;99401.78;;;12.22;100.00
13080;BME280;6606;49.154;9.280;2023-05-11T04:05:09;99401.72;;;12.24;100.00
13080;BME280;6606;49.154;9.280;2023-05-11T04:07:51;99406.38;;;12.20;100.00
13080;BME280;6606;49.154;9.280;2023-05-11T04:10:33;99408.72;;;12.25;100.00
13080;BME280;6606;49.154;9.280;2023-05-11T04:13:14;99414.53;;;12.31;100.00
13080;BME280;6606;49.154;9.280;2023-05-11T04:15:57;99408.81;;;12.38;100.00
13080;BME280;6606;49.154;9.280;2023-05-11T04:18:39;99411.13;;;12.44;100.00
13080;BME280;6606;49.154;9.280;2023-05-11T04:21:21;99404.44;;;12.51;100.00
13080;BME280;6606;49.154;9.280;2023-05-11T04:24:03;99422.13;;;12.52;100.00
13080;BME280;6606;49.154;9.280;2023-05-11T04:26:45;99416.63;;;12.55;100.00
13080;BME280;6606;49.154;9.280;2023-05-11T04:29:30;99408.81;;;12.66;100.00
13080;BME280;6606;49.154;9.280;2023-05-11T04:32:14;99409.22;;;12.60;100.00
13080;BME280;6606;49.154;9.280;2023-05-11T04:34:56;99410.34;;;12.56;100.00
13080;BME280;6606;49.154;9.280;2023-05-11T04:37:40;99404.25;;;12.68;100.00
13080;BME280;6606;49.154;9.280;2023-05-11T04:40:23;99407.78;;;12.69;100.00
13080;BME280;6606;49.154;9.280;2023-05-11T04:43:06;99413.72;;;12.72;100.00
13080;BME280;6606;49.154;9.280;2023-05-11T04:45:48;99408.72;;;12.68;100.00
13080;BME280;6606;49.154;9.280;2023-05-11T04:48:36;99410.13;;;12.73;100.00
13080;BME280;6606;49.154;9.280;2023-05-11T04:51:18;99406.13;;;12.81;100.00
13080;BME280;6606;49.154;9.280;2023-05-11T04:54:00;99406.50;;;12.89;100.00
13080;BME280;6606;49.154;9.280;2023-05-11T04:56:42;99405.16;;;12.96;100.00
13080;BME280;6606;49.154;9.280;2023-05-11T04:59:24;99407.06;;;12.94;100.00
13080;BME280;6606;49.154;9.280;2023-05-11T05:02:06;99408.00;;;13.07;100.00
13080;BME280;6606;49.154;9.280;2023-05-11T05:04:49;99399.13;;;13.07;100.00
13080;BME280;6606;49.154;9.280;2023-05-11T05:07:31;99410.53;;;13.09;100.00
13080;BME280;6606;49.154;9.280;2023-05-11T05:10:13;99412.69;;;13.16;100.00
13080;BME280;6606;49.154;9.280;2023-05-11T05:12:58;99413.25;;;13.22;100.00
13080;BME280;6606;49.154;9.280;2023-05-11T05:15:40;99408.31;;;13.30;100.00
13080;BME280;6606;49.154;9.280;2023-05-11T05:18:22;99417.69;;;13.35;100.00
13080;BME280;6606;49.154;9.280;2023-05-11T05:21:05;99421.13;;;13.37;100.00
13080;BME280;6606;49.154;9.280;2023-05-11T05:23:47;99421.31;;;13.34;100.00
13080;BME280;6606;49.154;9.280;2023-05-11T05:26:29;99420.06;;;13.26;100.00
13080;BME280;6606;49.154;9.280;2023-05-11T05:29:11;99423.22;;;13.32;100.00
13080;BME280;6606;49.154;9.280;2023-05-11T05:31:54;99424.28;;;13.30;100.00
13080;BME280;6606;49.154;9.280;2023-05-11T05:34:38;99425.38;;;13.40;100.00
13080;BME280;6606;49.154;9.280;2023-05-11T05:37:21;99426.28;;;13.53;100.00
13080;BME280;6606;49.154;9.280;2023-05-11T05:40:04;99439.69;;;13.52;100.00
13080;BME280;6606;49.154;9.280;2023-05-11T05:42:51;99438.25;;;13.60;100.00
13080;BME280;6606;49.154;9.280;2023-05-11T05:45:35;99438.53;;;13.56;100.00
13080;BME280;6606;49.154;9.280;2023-05-11T05:48:18;99443.75;;;13.57;100.00
13080;BME280;6606;49.154;9.280;2023-05-11T05:51:00;99439.75;;;13.77;100.00
13080;BME280;6606;49.154;9.280;2023-05-11T05:53:43;99439.75;;;13.77;100.00
13080;BME280;6606;49.154;9.280;2023-05-11T05:56:26;99441.50;;;13.91;100.00
13080;BME280;6606;49.154;9.280;2023-05-11T05:59:07;99441.69;;;13.88;100.00
13080;BME280;6606;49.154;9.280;2023-05-11T06:01:51;99447.44;;;13.82;100.00
13080;BME280;6606;49.154;9.280;2023-05-11T06:04:34;99436.81;;;14.07;100.00
13080;BME280;6606;49.154;9.280;2023-05-11T06:07:15;99438.22;;;14.13;100.00
13080;BME280;6606;49.154;9.280;2023-05-11T06:09:58;99440.25;;;14.10;100.00
13080;BME280;6606;49.154;9.280;2023-05-11T06:12:40;99445.03;;;14.17;100.00
13080;BME280;6606;49.154;9.280;2023-05-11T06:15:22;99441.22;;;14.08;100.00
13080;BME280;6606;49.154;9.280;2023-05-11T06:18:11;99443.66;;;14.24;100.00
13080;BME280;6606;49.154;9.280;2023-05-11T06:20:54;99450.47;;;14.41;100.00
13080;BME280;6606;49.154;9.280;2023-05-11T06:23:39;99440.69;;;14.55;100.00
13080;BME280;6606;49.154;9.280;2023-05-11T06:26:23;99449.22;;;14.60;100.00
13080;BME280;6606;49.154;9.280;2023-05-11T06:29:06;99449.22;;;14.60;100.00
13080;BME280;6606;49.154;9.280;2023-05-11T06:31:49;99447.94;;;14.52;100.00
13080;BME280;6606;49.154;9.280;2023-05-11T06:34:32;99440.91;;;14.77;100.00
13080;BME280;6606;49.154;9.280;2023-05-11T06:37:15;99448.00;;;14.89;100.00
13080;BME280;6606;49.154;9.280;2023-05-11T06:40:02;99448.97;;;14.88;100.00
13080;BME280;6606;49.154;9.280;2023-05-11T06:42:46;99449.00;;;14.76;100.00
13080;BME280;6606;49.154;9.280;2023-05-11T06:45:27;99444.81;;;14.84;100.00
13080;BME280;6606;49.154;9.280;2023-05-11T06:48:09;99442.53;;;15.04;100.00
13080;BME280;6606;49.154;9.280;2023-05-11T06:50:51;99442.09;;;15.10;100.00
13080;BME280;6606;49.154;9.280;2023-05-11T06:53:33;99447.94;;;14.78;100.00
13080;BME280;6606;49.154;9.280;2023-05-11T06:56:17;99448.56;;;14.30;100.00
13080;BME280;6606;49.154;9.280;2023-05-11T06:59:02;99447.72;;;14.30;100.00
13080;BME280;6606;49.154;9.280;2023-05-11T07:01:44;99447.41;;;14.60;100.00
13080;BME280;6606;49.154;9.280;2023-05-11T07:04:26;99445.06;;;14.30;100.00
13080;BME280;6606;49.154;9.280;2023-05-11T07:07:09;99450.50;;;14.16;100.00
13080;BME280;6606;49.154;9.280;2023-05-11T07:09:51;99440.16;;;14.24;100.00
13080;BME280;6606;49.154;9.280;2023-05-11T07:12:33;99456.03;;;14.38;100.00
13080;BME280;6606;49.154;9.280;2023-05-11T07:15:16;99455.00;;;14.54;100.00
13080;BME280;6606;49.154;9.280;2023-05-11T07:18:00;99451.69;;;14.37;100.00
13080;BME280;6606;49.154;9.280;2023-05-11T07:20:43;99453.06;;;14.43;100.00
13080;BME280;6606;49.154;9.280;2023-05-11T07:23:29;99449.94;;;14.36;100.00
13080;BME280;6606;49.154;9.280;2023-05-11T07:26:11;99450.25;;;14.44;100.00
13080;BME280;6606;49.154;9.280;2023-05-11T07:28:53;99457.53;;;14.68;100.00
13080;BME280;6606;49.154;9.280;2023-05-11T07:31:36;99452.66;;;14.62;100.00
13080;BME280;6606;49.154;9.280;2023-05-11T07:34:18;99455.63;;;14.57;100.00
13080;BME280;6606;49.154;9.280;2023-05-11T07:37:00;99454.13;;;14.40;100.00
13080;BME280;6606;49.154;9.280;2023-05-11T07:39:41;99453.03;;;14.81;100.00
13080;BME280;6606;49.154;9.280;2023-05-11T07:42:23;99457.66;;;15.16;100.00
13080;BME280;6606;49.154;9.280;2023-05-11T07:45:06;99455.38;;;14.99;100.00
13080;BME280;6606;49.154;9.280;2023-05-11T07:47:49;99462.47;;;14.74;100.00
13080;BME280;6606;49.154;9.280;2023-05-11T07:50:31;99458.56;;;15.04;100.00
13080;BME280;6606;49.154;9.280;2023-05-11T07:53:13;99451.97;;;14.71;100.00
13080;BME280;6606;49.154;9.280;2023-05-11T07:55:54;99460.69;;;14.99;100.00
13080;BME280;6606;49.154;9.280;2023-05-11T07:58:38;99453.78;;;14.83;100.00
13080;BME280;6606;49.154;9.280;2023-05-11T08:01:20;99452.25;;;15.29;100.00
13080;BME280;6606;49.154;9.280;2023-05-11T08:04:04;99453.06;;;15.66;100.00
13080;BME280;6606;49.154;9.280;2023-05-11T08:06:46;99463.03;;;15.40;100.00
13080;BME280;6606;49.154;9.280;2023-05-11T08:09:27;99456.25;;;15.23;100.00
13080;BME280;6606;49.154;9.280;2023-05-11T08:12:09;99462.53;;;15.59;100.00
13080;BME280;6606;49.154;9.280;2023-05-11T08:14:51;99460.66;;;15.72;100.00
13080;BME280;6606;49.154;9.280;2023-05-11T08:17:33;99465.31;;;15.81;100.00
13080;BME280;6606;49.154;9.280;2023-05-11T08:20:16;99462.22;;;15.99;100.00
13080;BME280;6606;49.154;9.280;2023-05-11T08:22:58;99461.53;;;15.60;100.00
13080;BME280;6606;49.154;9.280;2023-05-11T08:25:40;99458.53;;;15.41;100.00
13080;BME280;6606;49.154;9.280;2023-05-11T08:28:22;99458.78;;;15.61;100.00
13080;BME280;6606;49.154;9.280;2023-05-11T08:31:04;99464.16;;;15.49;100.00
13080;BME280;6606;49.154;9.280;2023-05-11T08:33:46;99466.78;;;15.37;100.00
13080;BME280;6606;49.154;9.280;2023-05-11T08:36:29;99462.72;;;15.32;100.00
13080;BME280;6606;49.154;9.280;2023-05-11T08:39:11;99462.34;;;15.25;100.00
13080;BME280;6606;49.154;9.280;2023-05-11T08:41:56;99463.66;;;15.07;100.00
13080;BME280;6606;49.154;9.280;2023-05-11T08:44:40;99465.53;;;15.30;100.00
13080;BME280;6606;49.154;9.280;2023-05-11T08:47:23;99467.78;;;15.48;100.00
13080;BME280;6606;49.154;9.280;2023-05-11T08:50:05;99462.38;;;15.73;100.00
13080;BME280;6606;49.154;9.280;2023-05-11T08:52:49;99467.34;;;16.13;100.00
13080;BME280;6606;49.154;9.280;2023-05-11T08:55:32;99463.44;;;16.06;100.00
13080;BME280;6606;49.154;9.280;2023-05-11T08:58:15;99466.56;;;15.89;100.00
13080;BME280;6606;49.154;9.280;2023-05-11T09:00:59;99470.97;;;16.01;100.00
13080;BME280;6606;49.154;9.280;2023-05-11T09:03:41;99465.72;;;15.64;100.00
13080;BME280;6606;49.154;9.280;2023-05-11T09:06:23;99469.78;;;15.57;100.00
13080;BME280;6606;49.154;9.280;2023-05-11T09:09:07;99467.25;;;15.18;100.00
13080;BME280;6606;49.154;9.280;2023-05-11T09:11:49;99466.28;;;15.56;100.00
13080;BME280;6606;49.154;9.280;2023-05-11T09:14:32;99473.34;;;15.45;100.00
13080;BME280;6606;49.154;9.280;2023-05-11T09:17:13;99472.78;;;15.52;100.00
13080;BME280;6606;49.154;9.280;2023-05-11T09:19:56;99470.69;;;15.45;100.00
13080;BME280;6606;49.154;9.280;2023-05-11T09:22:42;99474.06;;;15.83;100.00
13080;BME280;6606;49.154;9.280;2023-05-11T09:25:26;99470.31;;;15.62;100.00
13080;BME280;6606;49.154;9.280;2023-05-11T09:28:10;99470.28;;;16.10;100.00
13080;BME280;6606;49.154;9.280;2023-05-11T09:30:52;99479.09;;;15.99;100.00
13080;BME280;6606;49.154;9.280;2023-05-11T09:33:34;99473.13;;;16.54;100.00
13080;BME280;6606;49.154;9.280;2023-05-11T09:36:22;99480.97;;;16.79;100.00
13080;BME280;6606;49.154;9.280;2023-05-11T09:39:04;99475.63;;;16.90;100.00
13080;BME280;6606;49.154;9.280;2023-05-11T09:41:47;99475.47;;;16.69;100.00
13080;BME280;6606;49.154;9.280;2023-05-11T09:44:30;99482.06;;;16.88;100.00
13080;BME280;6606;49.154;9.280;2023-05-11T09:47:13;99475.03;;;16.87;100.00
13080;BME280;6606;49.154;9.280;2023-05-11T09:49:58;99476.47;;;17.02;100.00
13080;BME280;6606;49.154;9.280;2023-05-11T09:52:49;99479.16;;;17.02;100.00
13080;BME280;6606;49.154;9.280;2023-05-11T09:55:31;99471.84;;;17.04;100.00
13080;BME280;6606;49.154;9.280;2023-05-11T09:58:14;99468.16;;;17.28;100.00
13080;BME280;6606;49.154;9.280;2023-05-11T10:00:56;99479.16;;;17.57;100.00
13080;BME280;6606;49.154;9.280;2023-05-11T10:03:45;99471.47;;;16.98;100.00
13080;BME280;6606;49.154;9.280;2023-05-11T10:06:27;99476.31;;;16.59;100.00
13080;BME280;6606;49.154;9.280;2023-05-11T10:09:23;99476.44;;;16.68;100.00
13080;BME280;6606;49.154;9.280;2023-05-11T10:12:06;99466.50;;;17.04;100.00
13080;BME280;6606;49.154;9.280;2023-05-11T10:14:53;99473.03;;;17.11;100.00
13080;BME280;6606;49.154;9.280;2023-05-11T10:17:36;99472.78;;;17.14;100.00
13080;BME280;6606;49.154;9.280;2023-05-11T10:20:19;99466.97;;;16.98;100.00
13080;BME280;6606;49.154;9.280;2023-05-11T10:23:01;99473.34;;;16.86;100.00
13080;BME280;6606;49.154;9.280;2023-05-11T10:25:44;99475.38;;;16.82;100.00
13080;BME280;6606;49.154;9.280;2023-05-11T10:28:27;99474.25;;;16.04;100.00
13080;BME280;6606;49.154;9.280;2023-05-11T10:31:11;99474.97;;;16.64;100.00
13080;BME280;6606;49.154;9.280;2023-05-11T10:33:53;99468.22;;;16.94;100.00
13080;BME280;6606;49.154;9.280;2023-05-11T10:36:36;99471.53;;;16.40;100.00
13080;BME280;6606;49.154;9.280;2023-05-11T10:39:19;99466.91;;;16.31;100.00
13080;BME280;6606;49.154;9.280;2023-05-11T10:42:15;99467.63;;;16.21;100.00
13080;BME280;6606;49.154;9.280;2023-05-11T10:45:12;99467.13;;;16.16;100.00
13080;BME280;6606;49.154;9.280;2023-05-11T10:48:12;99468.28;;;16.59;100.00
13080;BME280;6606;49.154;9.280;2023-05-11T10:54:28;99460.38;;;16.68;100.00
13080;BME280;6606;49.154;9.280;2023-05-11T10:57:22;99457.47;;;17.05;100.00
13080;BME280;6606;49.154;9.280;2023-05-11T11:03:41;99460.13;;;16.49;100.00
13080;BME280;6606;49.154;9.280;2023-05-11T11:06:37;99468.88;;;16.51;100.00
13080;BME280;6606;49.154;9.280;2023-05-11T11:09:19;99458.97;;;16.87;100.00
13080;BME280;6606;49.154;9.280;2023-05-11T11:12:08;99458.00;;;16.99;100.00
13080;BME280;6606;49.154;9.280;2023-05-11T11:14:55;99462.59;;;17.08;100.00
13080;BME280;6606;49.154;9.280;2023-05-11T11:17:37;99456.00;;;17.24;100.00
13080;BME280;6606;49.154;9.280;2023-05-11T11:37:08;99448.72;;;16.92;100.00
13080;BME280;6606;49.154;9.280;2023-05-11T11:48:14;99446.72;;;17.28;100.00
13080;BME280;6606;49.154;9.280;2023-05-11T11:51:02;99451.16;;;16.73;100.00
13080;BME280;6606;49.154;9.280;2023-05-11T11:54:03;99456.50;;;16.73;100.00
13080;BME280;6606;49.154;9.280;2023-05-11T11:56:49;99449.09;;;16.87;100.00
13080;BME280;6606;49.154;9.280;2023-05-11T11:59:44;99441.59;;;17.36;100.00
13080;BME280;6606;49.154;9.280;2023-05-11T12:02:27;99446.66;;;17.07;100.00
13080;BME280;6606;49.154;9.280;2023-05-11T12:05:11;99449.44;;;16.71;100.00
13080;BME280;6606;49.154;9.280;2023-05-11T12:07:53;99447.34;;;16.64;100.00
13080;BME280;6606;49.154;9.280;2023-05-11T12:10:36;99435.09;;;16.95;100.00
13080;BME280;6606;49.154;9.280;2023-05-11T12:13:18;99441.28;;;17.18;100.00
13080;BME280;6606;49.154;9.280;2023-05-11T12:16:07;99446.28;;;17.23;100.00
13080;BME280;6606;49.154;9.280;2023-05-11T12:18:51;99447.69;;;17.27;100.00
13080;BME280;6606;49.154;9.280;2023-05-11T12:21:33;99438.81;;;17.26;100.00
13080;BME280;6606;49.154;9.280;2023-05-11T12:24:15;99436.53;;;17.10;100.00
13080;BME280;6606;49.154;9.280;2023-05-11T12:27:01;99434.50;;;16.91;100.00
13080;BME280;6606;49.154;9.280;2023-05-11T12:29:48;99431.84;;;17.35;100.00
13080;BME280;6606;49.154;9.280;2023-05-11T12:32:30;99431.94;;;17.45;100.00
13080;BME280;6606;49.154;9.280;2023-05-11T12:35:12;99439.41;;;17.62;100.00
13080;BME280;6606;49.154;9.280;2023-05-11T12:37:57;99433.75;;;17.01;100.00
13080;BME280;6606;49.154;9.280;2023-05-11T12:40:45;99431.00;;;17.34;100.00
13080;BME280;6606;49.154;9.280;2023-05-11T12:43:29;99429.75;;;17.82;100.00
13080;BME280;6606;49.154;9.280;2023-05-11T12:46:10;99425.59;;;17.89;100.00
13080;BME280;6606;49.154;9.280;2023-05-11T12:48:52;99423.75;;;17.46;100.00
13080;BME280;6606;49.154;9.280;2023-05-11T12:51:48;99427.03;;;17.18;100.00
13080;BME280;6606;49.154;9.280;2023-05-11T12:54:34;99420.50;;;17.86;100.00
13080;BME280;6606;49.154;9.280;2023-05-11T12:57:24;99411.53;;;17.97;100.00
13080;BME280;6606;49.154;9.280;2023-05-11T13:00:10;99412.22;;;18.20;100.00
13080;BME280;6606;49.154;9.280;2023-05-11T13:02:54;99410.25;;;17.80;100.00
13080;BME280;6606;49.154;9.280;2023-05-11T13:05:37;99405.44;;;18.16;100.00
13080;BME280;6606;49.154;9.280;2023-05-11T13:08:20;99396.94;;;17.90;100.00
13080;BME280;6606;49.154;9.280;2023-05-11T13:11:18;99399.38;;;18.44;100.00
13080;BME280;6606;49.154;9.280;2023-05-11T13:14:14;99408.44;;;18.53;100.00
13080;BME280;6606;49.154;9.280;2023-05-11T13:16:57;99402.16;;;19.04;100.00
13080;BME280;6606;49.154;9.280;2023-05-11T13:19:39;99403.56;;;18.37;100.00
13080;BME280;6606;49.154;9.280;2023-05-11T13:22:21;99403.47;;;18.18;100.00
13080;BME280;6606;49.154;9.280;2023-05-11T13:25:05;99397.28;;;18.88;100.00
13080;BME280;6606;49.154;9.280;2023-05-11T13:27:48;99405.34;;;18.88;100.00
13080;BME280;6606;49.154;9.280;2023-05-11T13:30:30;99388.00;;;18.93;100.00
13080;BME280;6606;49.154;9.280;2023-05-11T13:33:13;99388.75;;;18.74;100.00
13080;BME280;6606;49.154;9.280;2023-05-11T13:35:55;99384.69;;;18.49;100.00
13080;BME280;6606;49.154;9.280;2023-05-11T13:38:37;99387.66;;;18.76;100.00
13080;BME280;6606;49.154;9.280;2023-05-11T13:41:19;99386.84;;;18.85;100.00
13080;BME280;6606;49.154;9.280;2023-05-11T13:44:01;99384.91;;;19.26;100.00
13080;BME280;6606;49.154;9.280;2023-05-11T13:46:43;99378.72;;;19.36;100.00
13080;BME280;6606;49.154;9.280;2023-05-11T13:49:26;99385.03;;;18.65;100.00
13080;BME280;6606;49.154;9.280;2023-05-11T13:52:08;99380.47;;;18.86;100.00
13080;BME280;6606;49.154;9.280;2023-05-11T13:54:50;99377.53;;;18.28;100.00
13080;BME280;6606;49.154;9.280;2023-05-11T13:57:32;99372.88;;;17.99;100.00
13080;BME280;6606;49.154;9.280;2023-05-11T14:00:14;99365.53;;;18.01;100.00
13080;BME280;6606;49.154;9.280;2023-05-11T14:02:56;99367.22;;;18.23;100.00
13080;BME280;6606;49.154;9.280;2023-05-11T14:05:41;99358.69;;;18.39;100.00
13080;BME280;6606;49.154;9.280;2023-05-11T14:08:26;99361.88;;;18.02;100.00
13080;BME280;6606;49.154;9.280;2023-05-11T14:11:07;99351.78;;;17.74;100.00
13080;BME280;6606;49.154;9.280;2023-05-11T14:13:50;99354.41;;;17.85;100.00
13080;BME280;6606;49.154;9.280;2023-05-11T14:16:32;99361.59;;;18.06;100.00
13080;BME280;6606;49.154;9.280;2023-05-11T14:19:13;99344.38;;;18.29;100.00
13080;BME280;6606;49.154;9.280;2023-05-11T14:21:59;99349.06;;;18.37;100.00
13080;BME280;6606;49.154;9.280;2023-05-11T14:24:42;99354.44;;;18.46;100.00
13080;BME280;6606;49.154;9.280;2023-05-11T14:27:23;99352.72;;;18.36;100.00
13080;BME280;6606;49.154;9.280;2023-05-11T14:30:09;99348.28;;;17.94;100.00
13080;BME280;6606;49.154;9.280;2023-05-11T14:32:51;99346.41;;;17.74;100.00
13080;BME280;6606;49.154;9.280;2023-05-11T14:35:33;99346.03;;;17.57;100.00
13080;BME280;6606;49.154;9.280;2023-05-11T14:38:16;99341.81;;;17.44;100.00
13080;BME280;6606;49.154;9.280;2023-05-11T14:40:58;99343.75;;;17.21;100.00
13080;BME280;6606;49.154;9.280;2023-05-11T14:43:40;99341.81;;;17.23;100.00
13080;BME280;6606;49.154;9.280;2023-05-11T14:46:22;99347.84;;;17.36;100.00
13080;BME280;6606;49.154;9.280;2023-05-11T14:49:05;99339.34;;;17.31;100.00
13080;BME280;6606;49.154;9.280;2023-05-11T14:51:46;99335.56;;;17.22;100.00
13080;BME280;6606;49.154;9.280;2023-05-11T14:54:30;99335.47;;;17.24;100.00
13080;BME280;6606;49.154;9.280;2023-05-11T14:57:11;99341.81;;;17.23;100.00
13080;BME280;6606;49.154;9.280;2023-05-11T14:59:55;99337.34;;;17.33;100.00
13080;BME280;6606;49.154;9.280;2023-05-11T15:02:37;99327.56;;;17.43;100.00